Time;durP1;ratioP1;P1;durP2;ratioP2;P2;SDS_P1;SDS_P2;PMS_P1;PMS_P2;Temp;Humidity;BMP_temperature;BMP_pressure;BME280_temperature;BME280_humidity;BME280_pressure;Samples;Min_cycle;Max_cycle;Signal;HPM_P1;HPM_P2
2022/03/13 00:01:46;;;;;;;24.23;15.23;;;-1.20;99.90;;;;;;5110240;28;20199;-80
2022/03/13 00:04:14;;;;;;;23.67;15.50;;;-1.20;99.90;;;;;;5089105;28;20211;-79
2022/03/13 00:06:44;;;;;;;21.50;14.33;;;-1.00;99.90;;;;;;5107285;28;20196;-79
2022/03/13 00:09:14;;;;;;;25.03;15.50;;;-1.10;99.90;;;;;;5108164;28;20238;-79
2022/03/13 00:11:43;;;;;;;20.67;14.53;;;-0.90;99.90;;;;;;5096954;28;20207;-79
2022/03/13 00:14:10;;;;;;;23.03;14.80;;;-0.80;99.90;;;;;;5097033;28;20260;-78
2022/03/13 00:16:38;;;;;;;22.57;15.57;;;-0.80;99.90;;;;;;5098891;28;20663;-78
2022/03/13 00:19:07;;;;;;;20.83;14.70;;;-0.90;99.90;;;;;;5088552;28;20204;-78
2022/03/13 00:21:35;;;;;;;23.57;14.93;;;-0.90;99.90;;;;;;5104756;28;20205;-79
2022/03/13 00:24:02;;;;;;;22.37;14.77;;;-0.90;99.90;;;;;;5106296;28;20234;-79
2022/03/13 00:26:29;;;;;;;22.30;15.40;;;-0.80;99.90;;;;;;5102087;28;20282;-79
2022/03/13 00:28:56;;;;;;;20.57;14.67;;;-0.80;99.90;;;;;;5103151;28;20215;-78
2022/03/13 00:31:24;;;;;;;21.43;14.93;;;-0.80;99.90;;;;;;5095440;28;20196;-79
2022/03/13 00:33:51;;;;;;;23.83;14.10;;;-0.80;99.90;;;;;;5095642;28;20242;-77
2022/03/13 00:36:18;;;;;;;22.63;14.27;;;-0.80;99.90;;;;;;5095658;28;20200;-78
2022/03/13 00:38:46;;;;;;;21.73;14.17;;;-0.80;99.90;;;;;;5096307;28;20193;-78
2022/03/13 00:41:12;;;;;;;22.07;15.07;;;-0.80;99.90;;;;;;5096605;28;20228;-77
2022/03/13 00:43:39;;;;;;;20.97;13.90;;;-0.80;99.90;;;;;;5097238;28;20196;-79
2022/03/13 00:46:06;;;;;;;26.37;14.20;;;-0.90;99.90;;;;;;5098223;28;20196;-79
2022/03/13 00:48:32;;;;;;;22.90;14.53;;;-0.90;99.90;;;;;;5103635;28;20200;-79
2022/03/13 00:51:00;;;;;;;19.53;13.97;;;-1.10;99.90;;;;;;5101552;28;20288;-79
2022/03/13 00:53:26;;;;;;;23.33;14.60;;;-1.20;99.90;;;;;;5100948;28;20199;-78
2022/03/13 00:55:54;;;;;;;20.60;14.17;;;-1.20;99.90;;;;;;5085906;28;20279;-80
2022/03/13 00:58:25;;;;;;;21.03;14.33;;;-1.20;99.90;;;;;;5107521;28;20222;-79
2022/03/13 01:00:52;;;;;;;22.63;14.30;;;-1.20;99.90;;;;;;5108629;28;20230;-79
2022/03/13 01:03:31;;;;;;;23.67;14.50;;;-1.10;99.90;;;;;;5105560;28;20204;-77
2022/03/13 01:05:58;;;;;;;24.17;14.67;;;-1.10;99.90;;;;;;5106588;28;20203;-79
2022/03/13 01:08:25;;;;;;;19.63;13.67;;;-1.20;99.90;;;;;;5105772;28;20213;-79
2022/03/13 01:10:52;;;;;;;20.00;13.53;;;-1.10;99.90;;;;;;5104667;28;20756;-78
2022/03/13 01:13:21;;;;;;;23.00;14.40;;;-1.10;99.90;;;;;;5105208;28;20200;-78
2022/03/13 01:15:49;;;;;;;18.97;13.03;;;-1.00;99.90;;;;;;5105351;28;20206;-77
2022/03/13 01:18:17;;;;;;;21.03;14.20;;;-1.00;99.90;;;;;;5106553;28;20196;-79
2022/03/13 01:20:47;;;;;;;20.30;13.80;;;-1.00;99.90;;;;;;5106436;28;20196;-77
2022/03/13 01:23:15;;;;;;;21.67;14.07;;;-1.00;99.90;;;;;;5105894;28;20260;-78
2022/03/13 01:25:42;;;;;;;23.50;13.57;;;-0.90;99.90;;;;;;5105682;28;20253;-79
2022/03/13 01:28:09;;;;;;;20.50;13.50;;;-1.00;99.90;;;;;;5105264;28;20231;-78
2022/03/13 01:30:37;;;;;;;22.43;13.90;;;-1.00;99.90;;;;;;5106277;28;20216;-79
2022/03/13 01:33:04;;;;;;;21.33;14.50;;;-1.00;99.90;;;;;;5106815;28;20222;-77
2022/03/13 01:35:30;;;;;;;20.27;14.07;;;-1.10;99.90;;;;;;5106845;28;20197;-78
2022/03/13 01:37:58;;;;;;;19.73;13.23;;;-1.20;99.90;;;;;;5106655;28;20200;-79
2022/03/13 01:40:25;;;;;;;21.20;14.40;;;-1.20;99.90;;;;;;5105746;28;20582;-79
2022/03/13 01:42:54;;;;;;;23.23;13.93;;;-1.20;99.90;;;;;;5105829;28;20197;-78
2022/03/13 01:45:25;;;;;;;24.57;14.27;;;-1.30;99.90;;;;;;5086259;28;20203;-79
2022/03/13 01:47:53;;;;;;;20.20;13.67;;;-1.40;99.90;;;;;;5106169;28;20712;-78
2022/03/13 01:50:20;;;;;;;29.00;15.23;;;-1.40;99.90;;;;;;5104754;28;20633;-78
2022/03/13 01:52:48;;;;;;;20.80;13.80;;;-1.40;99.90;;;;;;5103811;28;20273;-78
2022/03/13 01:55:16;;;;;;;22.43;14.73;;;-1.40;99.90;;;;;;5102561;28;20266;-78
2022/03/13 01:57:45;;;;;;;23.77;14.27;;;-1.50;99.90;;;;;;5103153;28;20231;-77
2022/03/13 02:00:13;;;;;;;21.97;13.70;;;-1.50;99.90;;;;;;5103814;28;20235;-79
2022/03/13 02:02:46;;;;;;;23.17;13.33;;;-1.50;99.90;;;;;;5102941;28;20192;-79
2022/03/13 02:05:28;;;;;;;16.83;12.97;;;-1.50;99.90;;;;;;5103031;28;20192;-78
2022/03/13 02:07:56;;;;;;;20.70;13.70;;;-1.50;99.90;;;;;;5103590;28;20201;-80
2022/03/13 02:10:22;;;;;;;20.70;13.23;;;-1.50;99.90;;;;;;5105559;28;20314;-78
2022/03/13 02:12:49;;;;;;;22.60;14.10;;;-1.60;99.90;;;;;;5105726;28;20246;-78
2022/03/13 02:15:15;;;;;;;18.03;12.87;;;-1.60;99.90;;;;;;5105188;28;20258;-78
2022/03/13 02:17:42;;;;;;;20.77;14.47;;;-1.70;99.90;;;;;;5107946;28;20192;-78
2022/03/13 02:20:22;;;;;;;19.50;13.73;;;-1.60;99.90;;;;;;5107818;28;20205;-77
2022/03/13 02:22:52;;;;;;;20.93;13.40;;;-1.60;99.90;;;;;;5106728;28;20322;-77
2022/03/13 02:25:22;;;;;;;20.33;13.63;;;-1.60;99.90;;;;;;5106507;28;20199;-78
2022/03/13 02:27:48;;;;;;;22.30;13.37;;;-1.50;99.90;;;;;;5107755;28;20196;-79
2022/03/13 02:30:16;;;;;;;22.13;13.70;;;-1.50;99.90;;;;;;5107339;28;20301;-79
2022/03/13 02:32:42;;;;;;;21.33;13.63;;;-1.60;99.90;;;;;;5108457;28;20222;-78
2022/03/13 02:35:12;;;;;;;22.33;13.20;;;-1.60;99.90;;;;;;5101133;28;20261;-78
2022/03/13 02:37:41;;;;;;;21.13;12.93;;;-1.50;99.90;;;;;;5100293;28;20203;-77
2022/03/13 02:40:19;;;;;;;24.97;13.17;;;-1.70;99.90;;;;;;5099438;28;20285;-79
2022/03/13 02:42:46;;;;;;;19.93;13.30;;;-1.60;99.90;;;;;;5100473;28;20200;-78
2022/03/13 02:45:27;;;;;;;23.17;13.47;;;-1.60;99.90;;;;;;5099732;28;20204;-79
2022/03/13 02:47:54;;;;;;;19.30;12.73;;;-1.50;99.90;;;;;;5103075;28;20200;-78
2022/03/13 02:50:22;;;;;;;23.23;12.87;;;-1.50;99.90;;;;;;5086983;28;20220;-77
2022/03/13 02:52:49;;;;;;;20.20;13.60;;;-1.60;99.90;;;;;;5105862;28;20203;-78
2022/03/13 02:55:17;;;;;;;19.20;12.00;;;-1.70;99.90;;;;;;5105099;28;20208;-79
2022/03/13 02:57:43;;;;;;;19.00;12.37;;;-1.50;99.90;;;;;;5105932;28;20192;-79
2022/03/13 03:00:11;;;;;;;19.50;12.20;;;-1.50;99.90;;;;;;5105673;28;20724;-78
2022/03/13 03:02:37;;;;;;;18.80;13.10;;;-1.50;99.90;;;;;;5108533;28;20220;-78
2022/03/13 03:05:06;;;;;;;17.20;11.63;;;-1.60;99.90;;;;;;5109127;28;20204;-78
2022/03/13 03:07:32;;;;;;;21.27;12.43;;;-1.50;99.90;;;;;;5108626;28;20197;-78
2022/03/13 03:10:01;;;;;;;20.47;11.93;;;-1.40;99.90;;;;;;5108375;28;20216;-78
2022/03/13 03:12:29;;;;;;;19.67;12.83;;;-1.50;99.90;;;;;;5108521;28;20192;-78
2022/03/13 03:14:56;;;;;;;18.47;11.90;;;-1.60;99.90;;;;;;5108934;28;20196;-78
2022/03/13 03:17:23;;;;;;;18.77;12.07;;;-1.60;99.90;;;;;;5108779;28;20226;-78
2022/03/13 03:19:50;;;;;;;16.57;11.00;;;-1.60;99.90;;;;;;5108984;28;20287;-80
2022/03/13 03:22:19;;;;;;;18.67;11.63;;;-1.70;99.90;;;;;;5109139;28;20219;-78
2022/03/13 03:24:48;;;;;;;18.00;12.43;;;-1.70;99.90;;;;;;5109884;28;20196;-79
2022/03/13 03:27:16;;;;;;;17.27;12.43;;;-1.80;99.90;;;;;;5110210;28;20196;-78
2022/03/13 03:29:44;;;;;;;17.23;11.33;;;-1.90;99.90;;;;;;5110872;28;20228;-79
2022/03/13 03:32:11;;;;;;;18.80;11.33;;;-1.90;99.90;;;;;;5108530;28;20223;-78
2022/03/13 03:34:38;;;;;;;15.47;10.43;;;-1.90;99.90;;;;;;5109596;28;20200;-78
2022/03/13 03:37:04;;;;;;;17.70;10.87;;;-1.90;99.90;;;;;;5110195;28;20214;-79
2022/03/13 03:39:33;;;;;;;18.73;11.20;;;-2.00;99.90;;;;;;5109778;28;20232;-78
2022/03/13 03:42:02;;;;;;;16.20;10.87;;;-2.20;99.90;;;;;;5108995;28;20243;-79
2022/03/13 03:44:28;;;;;;;18.53;10.53;;;-2.30;99.90;;;;;;5111004;28;20199;-78
2022/03/13 03:46:56;;;;;;;18.17;11.37;;;-2.20;99.90;;;;;;5110325;28;20218;-78
2022/03/13 03:49:24;;;;;;;20.33;11.03;;;-2.00;99.90;;;;;;5109110;28;20196;-77
2022/03/13 03:51:51;;;;;;;17.23;10.90;;;-2.10;99.90;;;;;;5108363;28;20230;-78
2022/03/13 03:54:17;;;;;;;19.33;11.53;;;-2.10;99.90;;;;;;5109705;28;20204;-78
2022/03/13 03:56:44;;;;;;;16.93;11.27;;;-2.20;99.90;;;;;;5106820;28;20246;-79
2022/03/13 03:59:11;;;;;;;16.57;10.77;;;-2.30;99.90;;;;;;5104327;28;20196;-79
2022/03/13 04:01:39;;;;;;;14.87;10.77;;;-2.30;99.90;;;;;;5105257;28;20192;-78
2022/03/13 04:04:09;;;;;;;16.53;11.53;;;-2.40;99.90;;;;;;5105312;28;20234;-78
2022/03/13 04:06:38;;;;;;;19.73;11.17;;;-2.40;99.90;;;;;;5106886;28;20226;-79
2022/03/13 04:09:05;;;;;;;16.93;11.50;;;-2.30;99.90;;;;;;5106487;28;20256;-78
2022/03/13 04:11:34;;;;;;;18.97;12.00;;;-2.10;99.90;;;;;;5105451;28;20283;-78
2022/03/13 04:14:01;;;;;;;17.87;11.90;;;-2.20;99.90;;;;;;5107212;28;20260;-78
2022/03/13 04:16:30;;;;;;;19.83;12.20;;;-2.20;99.90;;;;;;5107244;28;20200;-78
2022/03/13 04:18:57;;;;;;;19.00;12.27;;;-2.20;99.90;;;;;;5106679;28;20219;-79
2022/03/13 04:21:26;;;;;;;19.93;12.43;;;-2.20;99.90;;;;;;5105935;28;20219;-79
2022/03/13 04:23:53;;;;;;;23.67;13.33;;;-2.10;99.90;;;;;;5105663;28;20258;-77
2022/03/13 04:26:22;;;;;;;24.90;14.47;;;-2.20;99.90;;;;;;5106754;28;20659;-78
2022/03/13 04:28:52;;;;;;;21.37;13.23;;;-2.20;99.90;;;;;;5106463;28;20192;-79
2022/03/13 04:31:20;;;;;;;22.47;13.43;;;-2.20;99.90;;;;;;5106476;28;20291;-78
2022/03/13 04:33:47;;;;;;;16.23;11.27;;;-2.30;99.90;;;;;;5108496;28;20263;-78
2022/03/13 04:36:14;;;;;;;16.70;10.73;;;-2.30;99.90;;;;;;5109015;28;20200;-79
2022/03/13 04:38:43;;;;;;;17.60;11.63;;;-2.20;99.90;;;;;;5107525;28;20226;-79
2022/03/13 04:41:10;;;;;;;16.00;10.37;;;-2.30;99.90;;;;;;5107684;28;20288;-79
2022/03/13 04:43:37;;;;;;;15.97;10.47;;;-2.30;99.90;;;;;;5108196;28;20250;-79
2022/03/13 04:46:04;;;;;;;15.43;11.00;;;-2.20;99.90;;;;;;5107458;28;20246;-78
2022/03/13 04:48:32;;;;;;;17.60;11.10;;;-2.30;99.90;;;;;;5108860;28;20200;-79
2022/03/13 04:50:59;;;;;;;15.87;11.10;;;-2.40;99.90;;;;;;5108612;28;20243;-77
2022/03/13 04:53:26;;;;;;;16.60;10.80;;;-2.30;99.90;;;;;;5107986;28;20633;-79
2022/03/13 04:55:54;;;;;;;16.03;10.87;;;-2.30;99.90;;;;;;5108521;28;20196;-79
2022/03/13 04:58:21;;;;;;;15.07;10.93;;;-2.30;99.90;;;;;;5107890;28;20208;-79
2022/03/13 05:00:48;;;;;;;18.00;10.73;;;-2.30;99.90;;;;;;5105424;28;20249;-79
2022/03/13 05:03:15;;;;;;;18.10;10.53;;;-2.20;99.90;;;;;;5104870;28;20227;-79
2022/03/13 05:05:42;;;;;;;15.60;9.87;;;-2.30;99.90;;;;;;5106385;28;20249;-78
2022/03/13 05:08:13;;;;;;;14.80;9.77;;;-2.40;99.90;;;;;;5108007;28;20274;-79
2022/03/13 05:10:41;;;;;;;14.80;10.17;;;-2.40;99.90;;;;;;5105574;28;20227;-80
2022/03/13 05:13:11;;;;;;;14.67;9.53;;;-2.30;99.90;;;;;;5105111;28;20193;-79
2022/03/13 05:15:39;;;;;;;16.57;10.50;;;-2.30;99.90;;;;;;5107015;28;20208;-78
2022/03/13 05:18:07;;;;;;;16.43;11.33;;;-2.40;99.90;;;;;;5105693;28;20267;-79
2022/03/13 05:20:35;;;;;;;20.93;12.10;;;-2.40;99.90;;;;;;5105688;28;20216;-80
2022/03/13 05:23:02;;;;;;;19.90;13.40;;;-2.40;99.90;;;;;;5104311;28;20192;-80
2022/03/13 05:25:30;;;;;;;22.60;12.73;;;-2.50;99.90;;;;;;5104303;28;20230;-80
2022/03/13 05:28:00;;;;;;;22.90;12.70;;;-2.50;99.90;;;;;;5103362;28;20196;-78
2022/03/13 05:30:29;;;;;;;17.87;11.70;;;-2.50;99.90;;;;;;5104414;28;20200;-79
2022/03/13 05:32:57;;;;;;;17.43;10.97;;;-2.60;99.90;;;;;;5104581;28;20291;-80
2022/03/13 05:35:23;;;;;;;16.43;11.10;;;-2.60;99.90;;;;;;5103415;28;20202;-79
2022/03/13 05:37:52;;;;;;;17.03;10.23;;;-2.50;99.90;;;;;;5103533;28;20200;-79
2022/03/13 05:40:21;;;;;;;14.40;10.50;;;-2.50;99.90;;;;;;5103905;28;20234;-79
2022/03/13 05:42:49;;;;;;;16.53;10.53;;;-2.40;99.90;;;;;;5103752;28;20201;-80
2022/03/13 05:45:19;;;;;;;16.20;10.07;;;-2.50;99.90;;;;;;5105789;28;20199;-79
2022/03/13 05:47:50;;;;;;;15.17;10.50;;;-2.40;99.90;;;;;;5104116;28;20197;-79
2022/03/13 05:50:18;;;;;;;13.47;9.80;;;-2.50;99.90;;;;;;5106313;28;20200;-79
2022/03/13 05:52:46;;;;;;;16.17;9.87;;;-2.50;99.90;;;;;;5109163;28;20243;-79
2022/03/13 05:55:13;;;;;;;14.90;10.33;;;-2.40;99.90;;;;;;5088030;28;20202;-79
2022/03/13 05:57:40;;;;;;;15.33;10.33;;;-2.40;99.90;;;;;;5106381;28;20219;-79
2022/03/13 06:00:10;;;;;;;15.93;10.73;;;-2.30;99.90;;;;;;5107948;28;20196;-79
2022/03/13 06:02:39;;;;;;;14.47;10.03;;;-2.40;99.90;;;;;;5109334;28;20205;-79
2022/03/13 06:05:10;;;;;;;19.77;11.40;;;-2.30;99.90;;;;;;5110806;28;20544;-79
2022/03/13 06:07:37;;;;;;;17.40;11.63;;;-2.30;99.90;;;;;;5109651;28;20196;-79
2022/03/13 06:10:04;;;;;;;16.63;11.33;;;-2.20;99.90;;;;;;5108538;28;20200;-80
2022/03/13 06:12:31;;;;;;;16.77;10.60;;;-2.10;99.90;;;;;;5107154;28;20254;-79
2022/03/13 06:14:58;;;;;;;19.07;11.73;;;-2.20;99.90;;;;;;5107062;28;20223;-79
2022/03/13 06:17:25;;;;;;;14.67;9.83;;;-2.10;99.90;;;;;;5104783;28;20727;-79
2022/03/13 06:19:55;;;;;;;15.83;10.40;;;-2.10;99.90;;;;;;5104370;28;20196;-80
2022/03/13 06:22:23;;;;;;;13.40;9.77;;;-2.10;99.90;;;;;;5103421;28;20196;-79
2022/03/13 06:24:50;;;;;;;14.03;10.07;;;-2.00;99.90;;;;;;5109295;28;20224;-79
2022/03/13 06:27:18;;;;;;;15.53;10.17;;;-2.00;99.90;;;;;;5111186;28;20226;-79
2022/03/13 06:29:44;;;;;;;16.03;9.53;;;-1.90;99.90;;;;;;5112747;28;20204;-80
2022/03/13 06:32:11;;;;;;;14.30;9.53;;;-1.80;99.90;;;;;;5111101;28;20216;-80
2022/03/13 06:34:38;;;;;;;12.87;9.27;;;-1.70;99.90;;;;;;5107703;28;20197;-80
2022/03/13 06:37:05;;;;;;;13.63;9.27;;;-1.60;99.90;;;;;;5109807;28;20196;-79
2022/03/13 06:39:33;;;;;;;15.17;9.63;;;-1.50;99.90;;;;;;5108413;28;20231;-78
2022/03/13 06:42:01;;;;;;;15.60;10.20;;;-1.30;99.90;;;;;;5110846;28;20226;-79
2022/03/13 06:44:27;;;;;;;18.57;9.97;;;-1.20;99.90;;;;;;5107315;28;20245;-80
2022/03/13 06:46:54;;;;;;;17.30;10.43;;;-1.10;99.90;;;;;;5107920;28;20199;-79
2022/03/13 06:49:22;;;;;;;17.63;11.07;;;-1.10;99.90;;;;;;5108470;28;20528;-79
2022/03/13 06:51:49;;;;;;;21.27;12.00;;;-1.00;99.90;;;;;;5088090;28;20223;-77
2022/03/13 06:54:16;;;;;;;19.07;11.33;;;-0.90;99.90;;;;;;5107058;28;20193;-79
2022/03/13 06:56:44;;;;;;;20.20;12.17;;;-0.80;99.90;;;;;;5108546;28;20197;-79
2022/03/13 06:59:10;;;;;;;17.33;10.77;;;-0.70;99.90;;;;;;5108027;28;20204;-79
2022/03/13 07:01:37;;;;;;;18.10;10.07;;;-0.50;99.90;;;;;;5106220;28;20621;-79
2022/03/13 07:04:05;;;;;;;15.27;9.63;;;-0.40;99.90;;;;;;5111730;28;20228;-79
2022/03/13 07:06:33;;;;;;;16.03;9.27;;;-0.30;99.90;;;;;;5110505;28;20226;-79
2022/03/13 07:09:00;;;;;;;16.33;9.17;;;-0.10;97.40;;;;;;5115324;28;20197;-80
2022/03/13 07:11:26;;;;;;;13.53;9.27;;;0.10;89.60;;;;;;5113773;28;20259;-79
2022/03/13 07:13:54;;;;;;;14.00;8.33;;;0.20;88.20;;;;;;5113697;28;20200;-79
2022/03/13 07:16:21;;;;;;;14.77;9.00;;;0.40;81.70;;;;;;5113275;28;20654;-79
2022/03/13 07:18:48;;;;;;;12.13;8.67;;;0.60;75.20;;;;;;5111330;28;20326;-79
2022/03/13 07:21:14;;;;;;;12.97;8.20;;;0.70;65.70;;;;;;5109231;28;20201;-79
2022/03/13 07:23:41;;;;;;;12.80;8.00;;;0.90;58.50;;;;;;5086258;28;20226;-78
2022/03/13 07:26:08;;;;;;;13.50;7.80;;;1.10;57.10;;;;;;5102374;28;20228;-79
2022/03/13 07:28:35;;;;;;;11.70;7.67;;;1.30;53.30;;;;;;5100354;28;20196;-78
2022/03/13 07:31:03;;;;;;;11.27;7.83;;;1.40;52.40;;;;;;5098043;28;20231;-79
2022/03/13 07:33:31;;;;;;;13.40;7.37;;;1.60;51.00;;;;;;5078497;28;20611;-78
2022/03/13 07:35:58;;;;;;;13.47;7.13;;;1.70;48.10;;;;;;5096585;28;20197;-79
2022/03/13 07:38:24;;;;;;;9.87;7.40;;;1.90;44.40;;;;;;5097168;28;20249;-78
2022/03/13 07:40:51;;;;;;;11.30;7.07;;;2.00;44.50;;;;;;5097034;28;20281;-79
2022/03/13 07:43:19;;;;;;;11.17;7.67;;;2.10;42.50;;;;;;5098341;28;20211;-79
2022/03/13 07:45:45;;;;;;;12.07;7.47;;;2.30;42.30;;;;;;5080273;28;20230;-78
2022/03/13 07:48:13;;;;;;;9.67;7.03;;;2.50;39.10;;;;;;5099800;28;20201;-78
2022/03/13 07:50:40;;;;;;;8.33;6.53;;;2.70;37.40;;;;;;5099189;28;20205;-79
2022/03/13 07:53:07;;;;;;;12.03;6.80;;;2.80;35.60;;;;;;5100329;28;20246;-79
2022/03/13 07:55:33;;;;;;;9.10;6.30;;;3.00;34.10;;;;;;5100848;28;20233;-78
2022/03/13 07:58:00;;;;;;;9.53;6.30;;;3.10;31.30;;;;;;5100872;28;20230;-78
2022/03/13 08:00:27;;;;;;;10.97;6.37;;;3.30;30.30;;;;;;5102233;28;20195;-79
2022/03/13 08:02:54;;;;;;;9.10;6.33;;;3.40;29.50;;;;;;5100545;28;20229;-79
2022/03/13 08:05:23;;;;;;;10.03;6.70;;;3.60;29.00;;;;;;5084207;28;20209;-80
2022/03/13 08:07:52;;;;;;;9.40;6.50;;;3.80;28.30;;;;;;5083966;28;20625;-80
2022/03/13 08:10:20;;;;;;;10.80;7.00;;;3.90;27.80;;;;;;5100393;28;20196;-79
2022/03/13 08:12:48;;;;;;;9.53;6.20;;;4.00;27.90;;;;;;5099969;28;20223;-79
2022/03/13 08:15:14;;;;;;;8.47;6.20;;;4.20;27.70;;;;;;5100578;28;20230;-78
2022/03/13 08:17:41;;;;;;;9.40;6.77;;;4.30;27.30;;;;;;5098826;28;20203;-79
2022/03/13 08:20:10;;;;;;;8.73;6.27;;;4.50;26.10;;;;;;5081650;28;20199;-79
2022/03/13 08:22:38;;;;;;;10.07;6.53;;;4.70;26.00;;;;;;5100029;28;20204;-79
2022/03/13 08:25:05;;;;;;;9.00;6.43;;;4.90;25.70;;;;;;5099778;28;20273;-78
2022/03/13 08:27:32;;;;;;;8.10;6.30;;;4.90;25.60;;;;;;5101981;28;20204;-79
2022/03/13 08:29:59;;;;;;;9.97;7.37;;;5.10;25.20;;;;;;5103473;28;20202;-78
2022/03/13 08:32:26;;;;;;;9.63;6.47;;;5.30;24.60;;;;;;5097295;28;20224;-77
2022/03/13 08:34:54;;;;;;;9.93;6.83;;;5.50;24.30;;;;;;5099803;28;20273;-80
2022/03/13 08:37:22;;;;;;;9.23;6.40;;;5.70;23.90;;;;;;5109850;28;20286;-82
2022/03/13 08:39:50;;;;;;;11.50;6.63;;;5.80;23.60;;;;;;5097859;28;20233;-83
2022/03/13 08:42:20;;;;;;;8.37;6.50;;;5.90;22.70;;;;;;5108777;28;20201;-84
2022/03/13 08:44:46;;;;;;;9.47;6.83;;;6.00;22.90;;;;;;5098055;28;20290;-86
2022/03/13 08:47:13;;;;;;;12.63;6.77;;;6.10;22.40;;;;;;5095354;28;20245;-83
2022/03/13 08:49:40;;;;;;;9.67;6.60;;;6.30;22.40;;;;;;5094805;28;20609;-84
2022/03/13 08:52:07;;;;;;;9.47;6.60;;;6.40;21.90;;;;;;5094567;28;20590;-88
2022/03/13 08:54:34;;;;;;;8.57;6.67;;;6.50;21.90;;;;;;5094900;28;20203;-86
2022/03/13 08:57:03;;;;;;;9.03;6.57;;;6.80;21.90;;;;;;5094906;28;20213;-91
2022/03/13 08:59:32;;;;;;;10.33;6.63;;;7.10;21.70;;;;;;5076021;28;20234;-87
2022/03/13 09:01:59;;;;;;;10.33;7.00;;;7.20;21.80;;;;;;5095876;28;20200;-89
2022/03/13 09:04:26;;;;;;;8.87;7.23;;;7.40;21.30;;;;;;5101620;28;20198;-88
2022/03/13 09:06:54;;;;;;;9.77;7.23;;;7.40;21.00;;;;;;5101366;28;20196;-91
2022/03/13 09:09:22;;;;;;;9.10;6.97;;;7.60;21.20;;;;;;5078300;28;20234;-87
2022/03/13 09:11:51;;;;;;;10.23;7.30;;;7.80;21.30;;;;;;5101544;28;20192;-84
2022/03/13 09:14:19;;;;;;;12.23;7.47;;;8.10;20.70;;;;;;5098605;28;20264;-85
2022/03/13 09:16:46;;;;;;;12.50;7.43;;;8.20;20.80;;;;;;5094258;28;20283;-92
2022/03/13 09:19:13;;;;;;;13.17;8.23;;;8.50;20.60;;;;;;5095104;28;20200;-87
2022/03/13 09:21:40;;;;;;;11.83;7.53;;;8.60;19.70;;;;;;5095005;28;20201;-89
2022/03/13 09:24:08;;;;;;;8.83;7.10;;;8.60;19.40;;;;;;5079544;28;20234;-84
2022/03/13 09:26:39;;;;;;;9.13;7.27;;;8.90;19.40;;;;;;5099372;28;20207;-86
2022/03/13 09:29:06;;;;;;;9.33;7.50;;;8.90;19.10;;;;;;5065909;28;20192;-92
2022/03/13 09:31:35;;;;;;;7.53;6.73;;;9.30;19.20;;;;;;5101855;28;20637;-90
2022/03/13 09:34:02;;;;;;;8.63;7.30;;;9.60;19.20;;;;;;5087681;28;20238;-91
2022/03/13 09:36:29;;;;;;;8.63;7.37;;;10.00;18.20;;;;;;5082520;28;20207;-86
2022/03/13 09:38:56;;;;;;;9.13;7.47;;;10.20;17.70;;;;;;5079352;28;20226;-81
2022/03/13 09:41:23;;;;;;;12.33;7.77;;;10.50;17.10;;;;;;5097206;28;20799;-82
2022/03/13 09:43:50;;;;;;;9.83;7.90;;;10.80;17.10;;;;;;5098224;28;20199;-87
2022/03/13 09:46:17;;;;;;;12.27;8.30;;;11.00;16.60;;;;;;5106038;28;20258;-89
2022/03/13 09:48:45;;;;;;;9.93;7.93;;;11.20;16.00;;;;;;5104734;28;20204;-89
2022/03/13 09:51:12;;;;;;;10.10;7.93;;;11.40;16.30;;;;;;5087560;28;20253;-91
2022/03/13 09:53:40;;;;;;;8.32;7.47;;;11.60;16.10;;;;;;5100064;28;20251;-89
2022/03/13 09:56:06;;;;;;;10.48;7.82;;;11.80;15.10;;;;;;5098875;28;20296;-85
2022/03/13 09:58:34;;;;;;;9.25;7.82;;;11.70;15.30;;;;;;5098539;28;20665;-84
2022/03/13 10:01:01;;;;;;;8.35;7.50;;;12.00;15.50;;;;;;5098416;28;20260;-86
2022/03/13 10:03:29;;;;;;;9.70;7.97;;;12.20;14.90;;;;;;5099338;28;20533;-86
2022/03/13 10:05:59;;;;;;;12.18;8.20;;;12.70;14.40;;;;;;5099330;28;20200;-88
2022/03/13 10:08:28;;;;;;;9.15;8.25;;;12.60;14.00;;;;;;5081522;28;20200;-86
2022/03/13 10:10:56;;;;;;;10.50;8.45;;;12.80;14.20;;;;;;5099363;28;20224;-80
2022/03/13 10:13:35;;;;;;;8.63;7.82;;;13.10;13.70;;;;;;5096076;28;20247;-79
2022/03/13 10:16:02;;;;;;;8.95;8.13;;;13.40;13.90;;;;;;5096886;28;20261;-84
2022/03/13 10:18:29;;;;;;;9.57;8.30;;;13.50;13.20;;;;;;5096983;28;20656;-83
2022/03/13 10:20:59;;;;;;;12.57;8.48;;;13.70;12.90;;;;;;5096410;28;20200;-80
2022/03/13 10:23:27;;;;;;;9.52;8.52;;;14.00;13.00;;;;;;5096762;28;20282;-81
2022/03/13 10:25:54;;;;;;;8.98;8.15;;;14.10;12.40;;;;;;5094100;28;20208;-76
2022/03/13 10:28:22;;;;;;;9.43;8.52;;;14.50;12.50;;;;;;5093752;28;20218;-77
2022/03/13 10:31:06;;;;;;;9.88;8.18;;;14.80;11.80;;;;;;5093624;28;20823;-80
2022/03/13 10:33:53;;;;;;;9.50;8.60;;;15.10;11.60;;;;;;5093922;28;20273;-80
2022/03/13 10:36:25;;;;;;;10.00;9.00;;;15.50;10.90;;;;;;5092681;28;20200;-80
2022/03/13 10:38:52;;;;;;;9.50;8.57;;;16.30;10.90;;;;;;5092968;28;20204;-79
2022/03/13 10:41:20;;;;;;;10.38;9.05;;;16.40;10.30;;;;;;5093047;28;20235;-80
2022/03/13 10:43:58;;;;;;;8.68;7.93;;;16.70;10.60;;;;;;5092929;28;20663;-81
2022/03/13 10:46:29;;;;;;;9.43;8.52;;;17.60;9.80;;;;;;5093134;28;20249;-82
2022/03/13 10:48:57;;;;;;;9.52;8.52;;;18.30;9.30;;;;;;5092686;28;20204;-80
2022/03/13 10:51:35;;;;;;;11.15;9.18;;;17.60;8.50;;;;;;5093244;28;20192;-83
2022/03/13 10:54:02;;;;;;;9.85;8.85;;;17.60;9.00;;;;;;5092931;28;20346;-80
2022/03/13 10:56:29;;;;;;;10.27;7.95;;;18.40;8.80;;;;;;5092928;28;20974;-81
2022/03/13 10:58:57;;;;;;;11.18;10.07;;;19.20;8.10;;;;;;5092963;28;20250;-81
2022/03/13 11:01:25;;;;;;;9.98;9.02;;;19.10;8.00;;;;;;5092240;28;20224;-80
2022/03/13 11:03:54;;;;;;;10.10;9.13;;;19.80;7.60;;;;;;5092821;28;20265;-80
2022/03/13 11:06:23;;;;;;;10.10;9.10;;;20.40;7.00;;;;;;5092802;28;20207;-78
2022/03/13 11:08:53;;;;;;;10.50;9.60;;;21.00;6.90;;;;;;5093014;28;20200;-80
2022/03/13 11:11:20;;;;;;;9.45;8.55;;;21.40;6.40;;;;;;5092508;28;20228;-80
2022/03/13 11:13:50;;;;;;;10.40;9.45;;;20.60;6.60;;;;;;5092092;28;20229;-80
2022/03/13 11:16:22;;;;;;;10.20;9.18;;;21.10;6.30;;;;;;5092822;28;20193;-79
2022/03/13 11:18:51;;;;;;;9.93;8.98;;;21.30;5.60;;;;;;5092472;28;20196;-80
2022/03/13 11:21:18;;;;;;;9.75;8.85;;;21.40;6.30;;;;;;5092463;28;20204;-80
2022/03/13 11:23:45;;;;;;;9.27;8.45;;;22.30;5.90;;;;;;5091951;28;20230;-79
2022/03/13 11:26:15;;;;;;;10.77;9.68;;;22.40;5.20;;;;;;5091955;28;20212;-79
2022/03/13 11:28:43;;;;;;;11.25;10.25;;;22.50;5.10;;;;;;5092019;28;20207;-79
2022/03/13 11:31:29;;;;;;;10.48;9.48;;;23.00;5.10;;;;;;5092129;28;20192;-80
2022/03/13 11:34:11;;;;;;;10.15;9.25;;;23.60;4.60;;;;;;5091910;28;20992;-79
2022/03/13 11:36:39;;;;;;;10.10;9.20;;;23.90;4.80;;;;;;5091634;28;20205;-78
2022/03/13 11:39:07;;;;;;;10.73;9.63;;;24.70;4.40;;;;;;5091656;28;20204;-79
2022/03/13 11:41:41;;;;;;;9.98;8.98;;;24.00;3.90;;;;;;5091891;28;20218;-78
2022/03/13 11:44:36;;;;;;;10.43;8.63;;;23.80;4.00;;;;;;5092008;28;20203;-78
2022/03/13 11:47:21;;;;;;;10.60;9.50;;;23.50;3.50;;;;;;5091860;28;20256;-79
2022/03/13 11:49:48;;;;;;;10.25;9.35;;;24.40;3.80;;;;;;5091302;28;20287;-79
2022/03/13 11:52:31;;;;;;;10.90;9.90;;;25.10;3.90;;;;;;5095491;28;20265;-81
2022/03/13 11:55:00;;;;;;;10.45;8.82;;;25.30;3.40;;;;;;5093782;28;20196;-80
2022/03/13 11:57:40;;;;;;;9.95;8.95;;;25.00;3.20;;;;;;5094201;28;20200;-80
2022/03/13 12:00:30;;;;;;;11.70;9.57;;;24.70;3.20;;;;;;5093105;28;20233;-81
2022/03/13 12:03:12;;;;;;;9.57;8.77;;;25.10;3.60;;;;;;5092919;28;20651;-80
2022/03/13 12:05:50;;;;;;;10.05;9.15;;;25.70;3.20;;;;;;5096019;28;20655;-82
2022/03/13 12:08:21;;;;;;;10.15;9.18;;;25.70;3.00;;;;;;5095549;28;20672;-81
2022/03/13 12:10:48;;;;;;;10.18;9.13;;;25.40;3.20;;;;;;5094886;28;20651;-81
2022/03/13 12:13:17;;;;;;;10.55;9.55;;;25.80;3.60;;;;;;5084073;28;20592;-83
2022/03/13 12:15:45;;;;;;;10.45;9.45;;;26.10;2.90;;;;;;5078989;28;20276;-86
2022/03/13 12:18:17;;;;;;;10.20;9.07;;;25.90;2.80;;;;;;5075236;28;20220;-84
2022/03/13 12:20:44;;;;;;;10.95;9.52;;;26.10;3.10;;;;;;5075994;28;20204;-86
2022/03/13 12:23:11;;;;;;;10.93;9.93;;;26.50;2.80;;;;;;5077527;28;20251;-87
2022/03/13 12:25:38;;;;;;;10.27;9.27;;;27.20;2.50;;;;;;5079484;28;20197;-86
2022/03/13 12:28:05;;;;;;;10.57;9.40;;;27.00;2.30;;;;;;5077315;28;20664;-84
2022/03/13 12:30:34;;;;;;;10.30;9.23;;;26.80;2.30;;;;;;5077203;28;20219;-83
2022/03/13 12:33:02;;;;;;;10.70;9.65;;;28.00;2.50;;;;;;5075651;28;20220;-85
2022/03/13 12:35:30;;;;;;;10.43;9.45;;;28.30;1.70;;;;;;5075991;28;20198;-83
2022/03/13 12:38:00;;;;;;;10.40;9.38;;;28.20;1.60;;;;;;5074338;28;20196;-77
2022/03/13 12:40:30;;;;;;;10.52;9.52;;;28.90;1.40;;;;;;5073606;28;20231;-85
2022/03/13 12:42:59;;;;;;;10.25;9.27;;;29.00;1.20;;;;;;5073434;28;20202;-79
2022/03/13 12:45:28;;;;;;;10.05;9.05;;;28.40;1.30;;;;;;5072731;28;20201;-78